createdAt,value
2023-04-22T00:00:13.207Z,9.27
2023-04-22T00:01:13.286Z,9.27
2023-04-22T00:02:13.474Z,9.27
2023-04-22T00:03:13.585Z,9.27
2023-04-22T00:04:13.778Z,9.30
2023-04-22T00:05:15.689Z,9.30
2023-04-22T00:06:13.713Z,9.34
2023-04-22T00:07:13.777Z,9.34
2023-04-22T00:08:13.887Z,9.30
2023-04-22T00:09:13.936Z,9.27
2023-04-22T00:10:14.050Z,9.27
2023-04-22T00:11:14.113Z,9.27
2023-04-22T00:12:14.206Z,9.23
2023-04-22T00:13:14.289Z,9.30
2023-04-22T00:14:14.361Z,9.34
2023-04-22T00:15:14.426Z,9.34
2023-04-22T00:16:14.554Z,9.37
2023-04-22T00:17:14.615Z,9.34
2023-04-22T00:18:14.710Z,9.34
2023-04-22T00:19:14.768Z,9.32
2023-04-22T00:20:14.838Z,9.34
2023-04-22T00:21:14.907Z,9.35
2023-04-22T00:22:15.018Z,9.38
2023-04-22T00:23:15.112Z,9.35
2023-04-22T00:24:15.174Z,9.40
2023-04-22T00:25:15.248Z,9.40
2023-04-22T00:26:15.348Z,9.42
2023-04-22T00:27:15.424Z,9.41
2023-04-22T00:28:15.525Z,9.40
2023-04-22T00:29:15.584Z,9.38
2023-04-22T00:30:15.676Z,9.37
2023-04-22T00:31:15.777Z,9.35
2023-04-22T00:32:15.836Z,9.35
2023-04-22T00:33:15.970Z,9.35
2023-04-22T00:34:15.992Z,9.38
2023-04-22T00:35:16.059Z,9.40
2023-04-22T00:36:16.132Z,9.40
2023-04-22T00:37:16.235Z,9.42
2023-04-22T00:38:16.318Z,9.41
2023-04-22T00:39:16.385Z,9.42
2023-04-22T00:40:16.483Z,9.44
2023-04-22T00:41:16.531Z,9.44
2023-04-22T00:42:16.636Z,9.44
2023-04-22T00:43:16.806Z,9.45
2023-04-22T00:44:16.780Z,9.45
2023-04-22T00:45:16.847Z,9.42
2023-04-22T00:46:17.043Z,9.44
2023-04-22T00:47:17.171Z,9.42
2023-04-22T00:48:17.112Z,9.41
2023-04-22T00:49:17.177Z,9.45
2023-04-22T00:50:17.260Z,9.42
2023-04-22T00:51:17.329Z,9.44
2023-04-22T00:52:17.426Z,9.45
2023-04-22T00:53:17.523Z,9.48
2023-04-22T00:54:17.569Z,9.49
2023-04-22T00:55:17.638Z,9.52
2023-04-22T00:56:17.745Z,9.52
2023-04-22T00:57:17.809Z,9.53
2023-04-22T00:58:17.904Z,9.53
2023-04-22T00:59:17.965Z,9.53
2023-04-22T01:00:18.058Z,9.49
2023-04-22T01:01:18.159Z,9.41
2023-04-22T01:02:18.281Z,9.41
2023-04-22T01:03:18.568Z,9.41
2023-04-22T01:04:18.678Z,9.45
2023-04-22T01:05:18.470Z,9.48
2023-04-22T01:06:18.557Z,9.44
2023-04-22T01:07:18.616Z,9.42
2023-04-22T01:08:18.719Z,9.48
2023-04-22T01:09:18.786Z,9.50
2023-04-22T01:10:18.885Z,9.44
2023-04-22T01:11:18.944Z,9.45
2023-04-22T01:12:19.042Z,9.52
2023-04-22T01:13:19.132Z,9.53
2023-04-22T01:14:19.201Z,9.58
2023-04-22T01:15:19.275Z,9.62
2023-04-22T01:16:19.375Z,9.65
2023-04-22T01:17:19.655Z,9.70
2023-04-22T01:18:19.558Z,9.71
2023-04-22T01:19:19.613Z,9.73
2023-04-22T01:20:19.696Z,9.77
2023-04-22T01:21:19.780Z,9.77
2023-04-22T01:22:19.858Z,9.75
2023-04-22T01:23:19.967Z,9.77
2023-04-22T01:24:20.030Z,9.80
2023-04-22T01:25:20.119Z,9.81
2023-04-22T01:26:20.213Z,9.83
2023-04-22T01:27:20.287Z,9.80
2023-04-22T01:28:20.402Z,9.71
2023-04-22T01:29:20.444Z,9.75
2023-04-22T01:30:20.539Z,9.74
2023-04-22T01:31:20.605Z,9.73
2023-04-22T01:32:20.820Z,9.75
2023-04-22T01:33:20.822Z,9.68
2023-04-22T01:34:20.870Z,9.71
2023-04-22T01:35:20.936Z,9.67
2023-04-22T01:36:21.021Z,9.70
2023-04-22T01:37:21.077Z,9.74
2023-04-22T01:38:21.192Z,9.74
2023-04-22T01:39:21.242Z,9.75
2023-04-22T01:40:21.329Z,9.77
2023-04-22T01:41:21.407Z,9.73
2023-04-22T01:42:21.491Z,9.71
2023-04-22T01:43:21.588Z,9.74
2023-04-22T01:44:21.651Z,9.71
2023-04-22T01:45:21.738Z,9.74
2023-04-22T01:46:21.883Z,9.71
2023-04-22T01:47:21.907Z,9.74
2023-04-22T01:48:22.104Z,9.75
2023-04-22T01:49:22.074Z,9.81
2023-04-22T01:50:22.154Z,9.83
2023-04-22T01:51:22.228Z,9.83
2023-04-22T01:52:22.308Z,9.81
2023-04-22T01:53:22.393Z,9.83
2023-04-22T01:54:22.473Z,9.86
2023-04-22T01:55:22.537Z,9.88
2023-04-22T01:56:22.637Z,9.89
2023-04-22T01:57:22.672Z,9.93
2023-04-22T01:58:22.808Z,9.95
2023-04-22T01:59:22.875Z,9.93
2023-04-22T02:00:22.953Z,9.98
2023-04-22T02:01:23.084Z,9.99
2023-04-22T02:02:23.327Z,10.04
2023-04-22T02:03:23.353Z,10.04
2023-04-22T02:04:23.273Z,10.06
2023-04-22T02:05:23.352Z,10.04
2023-04-22T02:06:23.449Z,10.09
2023-04-22T02:07:23.527Z,10.09
2023-04-22T02:08:23.655Z,10.09
2023-04-22T02:09:23.696Z,10.07
2023-04-22T02:10:23.790Z,10.06
2023-04-22T02:11:23.842Z,10.04
2023-04-22T02:12:23.934Z,10.04
2023-04-22T02:13:24.045Z,10.07
2023-04-22T02:14:24.098Z,10.07
2023-04-22T02:15:24.201Z,10.10
2023-04-22T02:16:24.384Z,10.13
2023-04-22T02:17:24.335Z,10.13
2023-04-22T02:18:24.455Z,10.13
2023-04-22T02:19:24.526Z,10.11
2023-04-22T02:20:24.584Z,10.16
2023-04-22T02:21:24.678Z,10.17
2023-04-22T02:22:24.762Z,10.20
2023-04-22T02:23:24.943Z,10.22
2023-04-22T02:24:24.934Z,10.22
2023-04-22T02:25:24.994Z,10.22
2023-04-22T02:26:25.077Z,10.22
2023-04-22T02:27:25.138Z,10.22
2023-04-22T02:28:25.245Z,10.22
2023-04-22T02:29:25.299Z,10.20
2023-04-22T02:30:25.379Z,10.20
2023-04-22T02:31:25.494Z,10.16
2023-04-22T02:32:25.578Z,10.13
2023-04-22T02:33:25.642Z,10.14
2023-04-22T02:34:25.702Z,10.13
2023-04-22T02:35:25.766Z,10.14
2023-04-22T02:36:25.864Z,10.16
2023-04-22T02:37:25.945Z,10.18
2023-04-22T02:38:26.046Z,10.22
2023-04-22T02:39:26.093Z,10.22
2023-04-22T02:40:26.165Z,10.25
2023-04-22T02:41:26.233Z,10.24
2023-04-22T02:42:26.337Z,10.16
2023-04-22T02:43:26.419Z,10.16
2023-04-22T02:44:26.501Z,10.13
2023-04-22T02:45:26.572Z,10.11
2023-04-22T02:46:26.664Z,10.07
2023-04-22T02:47:26.740Z,10.06
2023-04-22T02:48:26.826Z,10.02
2023-04-22T02:49:26.894Z,10.01
2023-04-22T02:50:26.949Z,10.06
2023-04-22T02:51:27.024Z,10.01
2023-04-22T02:52:27.124Z,10.01
2023-04-22T02:53:27.222Z,10.01
2023-04-22T02:54:27.292Z,10.01
2023-04-22T02:55:27.371Z,9.99
2023-04-22T02:56:27.448Z,9.99
2023-04-22T02:57:27.521Z,9.99
2023-04-22T02:58:27.612Z,9.99
2023-04-22T02:59:27.700Z,10.02
2023-04-22T03:00:27.786Z,10.06
2023-04-22T03:01:27.995Z,10.07
2023-04-22T03:02:28.044Z,10.10
2023-04-22T03:03:28.187Z,10.11
2023-04-22T03:04:28.169Z,10.14
2023-04-22T03:05:28.172Z,10.16
2023-04-22T03:06:28.257Z,10.17
2023-04-22T03:07:28.329Z,10.14
2023-04-22T03:08:28.437Z,10.16
2023-04-22T03:09:28.505Z,10.16
2023-04-22T03:10:28.579Z,10.17
2023-04-22T03:11:28.652Z,10.17
2023-04-22T03:12:28.720Z,10.18
2023-04-22T03:13:28.836Z,10.18
2023-04-22T03:14:28.881Z,10.18
2023-04-22T03:15:28.991Z,10.17
2023-04-22T03:16:29.104Z,10.17
2023-04-22T03:17:29.208Z,10.22
2023-04-22T03:18:29.255Z,10.20
2023-04-22T03:19:29.325Z,10.24
2023-04-22T03:20:29.398Z,10.28
2023-04-22T03:21:29.496Z,10.28
2023-04-22T03:22:29.579Z,10.29
2023-04-22T03:23:29.687Z,10.29
2023-04-22T03:24:29.748Z,10.31
2023-04-22T03:25:29.845Z,10.32
2023-04-22T03:26:29.897Z,10.35
2023-04-22T03:27:30.028Z,10.32
2023-04-22T03:28:30.111Z,10.36
2023-04-22T03:29:30.164Z,10.36
2023-04-22T03:30:30.236Z,10.36
2023-04-22T03:31:30.372Z,10.36
2023-04-22T03:32:30.414Z,10.36
2023-04-22T03:33:30.515Z,10.34
2023-04-22T03:34:30.538Z,10.34
2023-04-22T03:35:30.647Z,10.35
2023-04-22T03:36:30.712Z,10.35
2023-04-22T03:37:30.817Z,10.36
2023-04-22T03:38:30.911Z,10.39
2023-04-22T03:39:30.970Z,10.38
2023-04-22T03:40:31.049Z,10.38
2023-04-22T03:41:31.115Z,10.38
2023-04-22T03:42:31.185Z,10.36
2023-04-22T03:43:31.321Z,10.34
2023-04-22T03:44:31.366Z,10.31
2023-04-22T03:45:31.513Z,10.31
2023-04-22T03:46:31.640Z,10.31
2023-04-22T03:47:31.663Z,10.34
2023-04-22T03:48:31.739Z,10.32
2023-04-22T03:49:31.810Z,10.29
2023-04-22T03:50:31.883Z,10.28
2023-04-22T03:51:31.955Z,10.25
2023-04-22T03:52:32.030Z,10.25
2023-04-22T03:53:32.131Z,10.25
2023-04-22T03:54:32.160Z,10.24
2023-04-22T03:55:32.244Z,10.25
2023-04-22T03:56:32.327Z,10.26
2023-04-22T03:57:32.418Z,10.25
2023-04-22T03:58:32.516Z,10.25
2023-04-22T03:59:32.579Z,10.24
2023-04-22T04:00:32.673Z,10.25
2023-04-22T04:01:32.739Z,10.20
2023-04-22T04:02:33.009Z,10.22
2023-04-22T04:03:33.228Z,10.22
2023-04-22T04:04:33.503Z,10.18
2023-04-22T04:05:33.137Z,10.18
2023-04-22T04:06:33.134Z,10.20
2023-04-22T04:07:33.215Z,10.22
2023-04-22T04:08:33.297Z,10.22
2023-04-22T04:09:33.375Z,10.24
2023-04-22T04:10:33.486Z,10.26
2023-04-22T04:11:33.522Z,10.25
2023-04-22T04:12:33.597Z,10.25
2023-04-22T04:13:33.709Z,10.26
2023-04-22T04:14:33.754Z,10.26
2023-04-22T04:15:33.851Z,10.28
2023-04-22T04:16:33.995Z,10.29
2023-04-22T04:17:34.079Z,10.32
2023-04-22T04:18:34.100Z,10.28
2023-04-22T04:19:34.183Z,10.26
2023-04-22T04:20:34.272Z,10.26
2023-04-22T04:21:34.325Z,10.24
2023-04-22T04:22:34.414Z,10.25
2023-04-22T04:23:34.517Z,10.22
2023-04-22T04:24:34.596Z,10.20
2023-04-22T04:25:34.676Z,10.17
2023-04-22T04:26:34.756Z,10.17
2023-04-22T04:27:34.836Z,10.17
2023-04-22T04:28:34.955Z,10.18
2023-04-22T04:29:34.977Z,10.16
2023-04-22T04:30:35.064Z,10.16
2023-04-22T04:31:35.145Z,10.13
2023-04-22T04:32:35.242Z,10.10
2023-04-22T04:33:35.311Z,10.09
2023-04-22T04:34:35.398Z,10.10
2023-04-22T04:35:35.496Z,10.10
2023-04-22T04:36:35.564Z,10.09
2023-04-22T04:37:35.639Z,10.10
2023-04-22T04:38:35.758Z,10.09
2023-04-22T04:39:35.823Z,10.06
2023-04-22T04:40:35.896Z,10.09
2023-04-22T04:41:35.927Z,10.07
2023-04-22T04:42:36.040Z,10.02
2023-04-22T04:43:36.129Z,9.99
2023-04-22T04:44:36.179Z,9.96
2023-04-22T04:45:36.257Z,9.92
2023-04-22T04:46:36.394Z,9.88
2023-04-22T04:47:36.486Z,9.86
2023-04-22T04:48:36.571Z,9.89
2023-04-22T04:49:36.561Z,9.83
2023-04-22T04:50:36.668Z,9.80
2023-04-22T04:51:36.721Z,9.78
2023-04-22T04:52:36.828Z,9.78
2023-04-22T04:53:36.892Z,9.77
2023-04-22T04:54:36.988Z,9.77
2023-04-22T04:55:37.060Z,9.78
2023-04-22T04:56:37.156Z,9.80
2023-04-22T04:57:38.456Z,9.78
2023-04-22T04:58:37.347Z,9.77
2023-04-22T04:59:37.608Z,9.78
2023-04-22T05:00:37.505Z,9.77
2023-04-22T05:01:37.582Z,9.78
2023-04-22T05:02:37.769Z,9.77
2023-04-22T05:03:37.885Z,9.75
2023-04-22T05:04:38.016Z,9.77
2023-04-22T05:05:37.922Z,9.83
2023-04-22T05:06:38.026Z,9.83
2023-04-22T05:07:38.110Z,9.86
2023-04-22T05:08:38.202Z,9.91
2023-04-22T05:09:38.495Z,9.95
2023-04-22T05:10:38.352Z,10.02
2023-04-22T05:11:38.453Z,10.06
2023-04-22T05:12:38.562Z,10.11
2023-04-22T05:13:38.615Z,10.17
2023-04-22T05:14:38.703Z,10.25
2023-04-22T05:15:38.767Z,10.29
2023-04-22T05:16:38.990Z,10.34
2023-04-22T05:17:39.024Z,10.39
2023-04-22T05:18:39.092Z,10.46
2023-04-22T05:19:39.418Z,10.52
2023-04-22T05:20:39.202Z,10.58
2023-04-22T05:21:39.281Z,10.62
2023-04-22T05:22:39.378Z,10.62
2023-04-22T05:23:39.496Z,10.65
2023-04-22T05:24:39.541Z,10.68
2023-04-22T05:25:39.593Z,10.68
2023-04-22T05:26:39.680Z,10.69
2023-04-22T05:27:39.768Z,10.72
2023-04-22T05:28:39.875Z,10.73
2023-04-22T05:29:40.214Z,10.70
2023-04-22T05:30:40.042Z,10.68
2023-04-22T05:31:40.168Z,10.65
2023-04-22T05:32:40.224Z,10.62
2023-04-22T05:33:40.295Z,10.65
2023-04-22T05:34:40.334Z,10.63
2023-04-22T05:35:40.433Z,10.68
2023-04-22T05:36:40.487Z,10.69
2023-04-22T05:37:40.554Z,10.72
2023-04-22T05:38:40.681Z,10.75
2023-04-22T05:39:40.951Z,10.76
2023-04-22T05:40:40.798Z,10.78
2023-04-22T05:41:40.869Z,10.84
2023-04-22T05:42:40.960Z,10.84
2023-04-22T05:43:41.033Z,10.87
2023-04-22T05:44:41.124Z,10.91
2023-04-22T05:45:41.204Z,10.93
2023-04-22T05:46:41.268Z,10.98
2023-04-22T05:47:41.380Z,11.01
2023-04-22T05:48:41.454Z,11.08
2023-04-22T05:49:41.983Z,11.17
2023-04-22T05:50:41.594Z,11.23
2023-04-22T05:51:41.648Z,11.30
2023-04-22T05:52:41.755Z,11.36
2023-04-22T05:53:41.837Z,11.39
2023-04-22T05:54:41.891Z,11.41
2023-04-22T05:55:41.964Z,11.45
2023-04-22T05:56:42.071Z,11.46
2023-04-22T05:57:42.123Z,11.49
2023-04-22T05:58:42.246Z,11.54
2023-04-22T05:59:42.567Z,11.57
2023-04-22T06:00:42.365Z,11.63
2023-04-22T06:01:42.434Z,11.69
2023-04-22T06:02:42.629Z,11.77
2023-04-22T06:03:42.976Z,11.85
2023-04-22T06:04:43.104Z,11.94
2023-04-22T06:05:42.792Z,12.01
2023-04-22T06:06:42.817Z,12.08
2023-04-22T06:07:42.898Z,12.13
2023-04-22T06:08:43.042Z,12.16
2023-04-22T06:09:43.256Z,12.19
2023-04-22T06:10:43.148Z,12.23
2023-04-22T06:11:43.213Z,12.25
2023-04-22T06:12:43.268Z,12.29
2023-04-22T06:13:43.376Z,12.33
2023-04-22T06:14:43.468Z,12.33
2023-04-22T06:15:43.595Z,12.37
2023-04-22T06:16:43.661Z,12.40
2023-04-22T06:17:43.742Z,12.44
2023-04-22T06:18:43.836Z,12.49
2023-04-22T06:19:43.866Z,12.52
2023-04-22T06:20:43.969Z,12.54
2023-04-22T06:21:44.045Z,12.56
2023-04-22T06:22:44.148Z,12.59
2023-04-22T06:23:44.309Z,12.62
2023-04-22T06:24:45.726Z,12.70
2023-04-22T06:25:44.399Z,12.77
2023-04-22T06:26:44.479Z,12.87
2023-04-22T06:27:44.547Z,12.96
2023-04-22T06:28:44.652Z,12.96
2023-04-22T06:29:44.705Z,13.03
2023-04-22T06:30:44.783Z,13.16
2023-04-22T06:31:44.984Z,13.24
2023-04-22T06:32:44.941Z,13.17
2023-04-22T06:33:45.044Z,13.13
2023-04-22T06:34:45.129Z,13.12
2023-04-22T06:35:45.185Z,13.14
2023-04-22T06:36:45.287Z,13.19
2023-04-22T06:37:45.373Z,13.24
2023-04-22T06:38:45.487Z,13.29
2023-04-22T06:39:45.527Z,13.36
2023-04-22T06:40:45.617Z,13.46
2023-04-22T06:41:45.651Z,13.61
2023-04-22T06:42:45.753Z,13.72
2023-04-22T06:43:45.869Z,13.91
2023-04-22T06:44:45.898Z,14.45
2023-04-22T06:45:45.956Z,15.11
2023-04-22T06:46:46.080Z,15.93
2023-04-22T06:47:46.142Z,16.78
2023-04-22T06:48:46.228Z,17.33
2023-04-22T06:49:46.305Z,17.91
2023-04-22T06:50:46.400Z,18.07
2023-04-22T06:51:46.451Z,18.26
2023-04-22T06:52:46.530Z,18.69
2023-04-22T06:53:46.620Z,18.97
2023-04-22T06:54:46.705Z,19.12
2023-04-22T06:55:46.761Z,19.28
2023-04-22T06:56:46.857Z,19.17
2023-04-22T06:57:46.955Z,19.34
2023-04-22T06:58:47.049Z,19.55
2023-04-22T06:59:47.296Z,19.68
2023-04-22T07:00:47.216Z,19.90
2023-04-22T07:01:47.332Z,19.89
2023-04-22T07:02:47.473Z,20.16
2023-04-22T07:03:47.590Z,20.37
2023-04-22T07:04:47.526Z,20.68
2023-04-22T07:05:47.598Z,21.12
2023-04-22T07:06:47.670Z,21.26
2023-04-22T07:07:47.729Z,21.16
2023-04-22T07:08:47.869Z,21.43
2023-04-22T07:09:47.940Z,21.11
2023-04-22T07:10:48.049Z,21.33
2023-04-22T07:11:48.113Z,21.45
2023-04-22T07:12:48.178Z,21.63
2023-04-22T07:13:48.253Z,21.79
2023-04-22T07:14:48.319Z,22.24
2023-04-22T07:15:48.381Z,22.35
2023-04-22T07:16:48.534Z,22.11
2023-04-22T07:17:48.591Z,21.98
2023-04-22T07:18:48.685Z,22.21
2023-04-22T07:19:48.731Z,22.17
2023-04-22T07:20:48.809Z,22.24
2023-04-22T07:21:48.886Z,22.26
2023-04-22T07:22:48.973Z,22.17
2023-04-22T07:23:49.069Z,22.24
2023-04-22T07:24:49.155Z,21.75
2023-04-22T07:25:49.237Z,21.74
2023-04-22T07:26:49.332Z,21.68
2023-04-22T07:27:49.417Z,21.51
2023-04-22T07:28:49.524Z,21.15
2023-04-22T07:29:49.572Z,20.76
2023-04-22T07:30:49.680Z,21.18
2023-04-22T07:31:49.723Z,21.55
2023-04-22T07:32:49.852Z,21.83
2023-04-22T07:33:49.913Z,22.19
2023-04-22T07:34:49.987Z,22.85
2023-04-22T07:35:50.037Z,23.54
2023-04-22T07:36:50.107Z,23.90
2023-04-22T07:37:50.183Z,24.31
2023-04-22T07:38:50.310Z,24.12
2023-04-22T07:39:50.364Z,23.41
2023-04-22T07:40:50.471Z,23.35
2023-04-22T07:41:50.533Z,22.82
2023-04-22T07:42:50.607Z,22.54
2023-04-22T07:43:50.692Z,22.88
2023-04-22T07:44:50.756Z,23.38
2023-04-22T07:45:50.864Z,23.49
2023-04-22T07:46:50.957Z,23.74
2023-04-22T07:47:51.174Z,23.97
2023-04-22T07:48:51.131Z,24.12
2023-04-22T07:49:51.173Z,23.99
2023-04-22T07:50:51.271Z,23.82
2023-04-22T07:51:51.358Z,23.54
2023-04-22T07:52:51.440Z,23.01
2023-04-22T07:53:51.564Z,22.41
2023-04-22T07:54:51.628Z,21.99
2023-04-22T07:55:51.707Z,22.36
2023-04-22T07:56:51.799Z,22.70
2023-04-22T07:57:51.873Z,21.96
2023-04-22T07:58:51.988Z,21.74
2023-04-22T07:59:52.023Z,21.61
2023-04-22T08:00:52.178Z,21.83
2023-04-22T08:01:52.177Z,22.20
2023-04-22T08:02:52.406Z,22.66
2023-04-22T08:03:52.692Z,22.75
2023-04-22T08:04:52.616Z,22.27
2023-04-22T08:05:52.526Z,22.20
2023-04-22T08:06:52.620Z,22.02
2023-04-22T08:07:52.694Z,21.99
2023-04-22T08:08:52.811Z,21.81
2023-04-22T08:09:52.872Z,22.02
2023-04-22T08:10:52.968Z,21.75
2023-04-22T08:11:53.039Z,21.96
2023-04-22T08:12:53.126Z,21.71
2023-04-22T08:13:53.222Z,21.90
2023-04-22T08:14:53.296Z,22.29
2023-04-22T08:15:53.390Z,22.19
2023-04-22T08:16:53.456Z,21.74
2023-04-22T08:17:53.553Z,21.40
2023-04-22T08:18:53.653Z,21.56
2023-04-22T08:19:53.727Z,21.74
2023-04-22T08:20:53.818Z,21.71
2023-04-22T08:21:53.893Z,21.94
2023-04-22T08:22:53.985Z,22.05
2023-04-22T08:23:54.087Z,21.99
2023-04-22T08:24:54.170Z,22.05
2023-04-22T08:25:54.259Z,21.66
2023-04-22T08:26:54.350Z,21.73
2023-04-22T08:27:54.437Z,21.27
2023-04-22T08:28:54.539Z,21.18
2023-04-22T08:29:54.577Z,21.28
2023-04-22T08:30:54.738Z,21.18
2023-04-22T08:31:54.758Z,21.01
2023-04-22T08:32:54.883Z,20.72
2023-04-22T08:33:54.950Z,20.53
2023-04-22T08:35:03.949Z,20.73
2023-04-22T08:35:55.075Z,20.64
2023-04-22T08:36:55.170Z,20.57
2023-04-22T08:37:55.263Z,20.81
2023-04-22T08:38:55.362Z,20.71
2023-04-22T08:39:55.442Z,20.91
2023-04-22T08:40:55.519Z,21.21
2023-04-22T08:41:55.612Z,21.13
2023-04-22T08:42:55.684Z,21.16
2023-04-22T08:43:55.800Z,21.51
2023-04-22T08:44:55.854Z,21.73
2023-04-22T08:45:55.937Z,22.06
2023-04-22T08:46:56.112Z,22.11
2023-04-22T08:47:56.126Z,22.24
2023-04-22T08:48:56.195Z,22.31
2023-04-22T08:49:56.277Z,22.59
2023-04-22T08:50:56.352Z,22.79
2023-04-22T08:51:56.444Z,23.01
2023-04-22T08:52:56.523Z,22.96
2023-04-22T08:53:56.653Z,22.78
2023-04-22T08:54:56.710Z,22.89
2023-04-22T08:55:56.776Z,22.66
2023-04-22T08:56:56.861Z,22.45
2023-04-22T08:57:56.963Z,22.74
2023-04-22T08:58:57.099Z,22.72
2023-04-22T08:59:57.137Z,22.82
2023-04-22T09:00:57.226Z,22.56
2023-04-22T09:01:57.374Z,22.08
2023-04-22T09:02:57.487Z,21.43
2023-04-22T09:03:57.608Z,20.82
2023-04-22T09:04:57.545Z,20.97
2023-04-22T09:05:57.625Z,21.15
2023-04-22T09:06:57.702Z,21.28
2023-04-22T09:07:57.805Z,20.71
2023-04-22T09:08:57.904Z,20.69
2023-04-22T09:09:57.954Z,20.88
2023-04-22T09:10:58.060Z,21.21
2023-04-22T09:11:58.116Z,21.63
2023-04-22T09:12:58.197Z,21.98
2023-04-22T09:13:58.301Z,22.56
2023-04-22T09:14:58.348Z,22.78
2023-04-22T09:16:00.016Z,22.63
2023-04-22T09:16:58.497Z,22.12
2023-04-22T09:17:58.735Z,22.19
2023-04-22T09:18:58.698Z,22.21
2023-04-22T09:19:58.784Z,22.11
2023-04-22T09:20:58.868Z,22.54
2023-04-22T09:21:58.964Z,22.63
2023-04-22T09:22:59.041Z,22.97
2023-04-22T09:23:59.185Z,22.79
2023-04-22T09:24:59.217Z,22.54
2023-04-22T09:25:59.317Z,22.46
2023-04-22T09:26:59.407Z,22.82
2023-04-22T09:27:59.510Z,22.84
2023-04-22T09:28:59.596Z,22.29
2023-04-22T09:29:59.649Z,21.94
2023-04-22T09:30:59.732Z,22.12
2023-04-22T09:31:59.881Z,22.19
2023-04-22T09:32:59.948Z,22.48
2023-04-22T09:34:00.039Z,22.69
2023-04-22T09:35:00.073Z,22.76
2023-04-22T09:36:00.168Z,22.46
2023-04-22T09:37:00.359Z,22.75
2023-04-22T09:38:00.338Z,22.39
2023-04-22T09:39:00.403Z,22.33
2023-04-22T09:40:00.466Z,22.35
2023-04-22T09:41:00.519Z,22.45
2023-04-22T09:42:00.620Z,22.72
2023-04-22T09:43:00.703Z,22.61
2023-04-22T09:44:00.807Z,22.09
2023-04-22T09:45:02.037Z,21.61
2023-04-22T09:46:00.959Z,21.16
2023-04-22T09:47:00.997Z,20.98
2023-04-22T09:48:01.144Z,20.82
2023-04-22T09:49:01.192Z,20.94
2023-04-22T09:50:01.275Z,20.90
2023-04-22T09:51:01.358Z,20.83
2023-04-22T09:52:01.451Z,21.09
2023-04-22T09:53:01.493Z,21.36
2023-04-22T09:54:01.632Z,21.58
2023-04-22T09:55:01.643Z,21.51
2023-04-22T09:56:01.748Z,21.59
2023-04-22T09:57:01.817Z,21.94
2023-04-22T09:58:01.891Z,22.01
2023-04-22T09:59:01.993Z,22.21
2023-04-22T10:00:02.051Z,22.44
2023-04-22T10:01:02.169Z,22.69
2023-04-22T10:02:02.319Z,22.85
2023-04-22T10:03:02.374Z,22.44
2023-04-22T10:04:02.518Z,22.15
2023-04-22T10:05:02.480Z,22.14
2023-04-22T10:06:02.581Z,22.04
2023-04-22T10:07:02.664Z,21.98
2023-04-22T10:08:02.832Z,21.77
2023-04-22T10:09:02.858Z,21.42
2023-04-22T10:10:02.916Z,21.37
2023-04-22T10:11:03.020Z,21.42
2023-04-22T10:12:03.094Z,21.45
2023-04-22T10:13:03.185Z,21.43
2023-04-22T10:14:03.284Z,21.37
2023-04-22T10:15:03.562Z,21.31
2023-04-22T10:16:03.404Z,21.27
2023-04-22T10:17:03.598Z,21.43
2023-04-22T10:18:03.595Z,21.55
2023-04-22T10:19:03.645Z,21.64
2023-04-22T10:20:03.709Z,21.66
2023-04-22T10:21:03.762Z,21.56
2023-04-22T10:22:03.868Z,21.55
2023-04-22T10:23:03.920Z,21.56
2023-04-22T10:24:04.034Z,21.58
2023-04-22T10:25:04.089Z,21.68
2023-04-22T10:26:04.188Z,21.73
2023-04-22T10:27:04.246Z,21.75
2023-04-22T10:28:04.331Z,21.81
2023-04-22T10:29:04.409Z,21.63
2023-04-22T10:30:04.495Z,21.58
2023-04-22T10:31:04.648Z,21.61
2023-04-22T10:32:04.632Z,21.71
2023-04-22T10:33:04.709Z,21.67
2023-04-22T10:34:04.866Z,21.70
2023-04-22T10:35:04.878Z,21.67
2023-04-22T10:36:04.988Z,21.67
2023-04-22T10:37:05.071Z,21.79
2023-04-22T10:38:05.165Z,21.81
2023-04-22T10:39:05.242Z,21.91
2023-04-22T10:40:05.311Z,21.86
2023-04-22T10:41:05.373Z,21.85
2023-04-22T10:42:05.437Z,21.61
2023-04-22T10:43:05.510Z,21.58
2023-04-22T10:44:05.638Z,21.51
2023-04-22T10:45:05.788Z,21.36
2023-04-22T10:46:05.767Z,21.03
2023-04-22T10:47:05.812Z,20.94
2023-04-22T10:48:05.948Z,20.98
2023-04-22T10:49:06.726Z,21.01
2023-04-22T10:50:06.098Z,20.90
2023-04-22T10:51:06.164Z,20.85
2023-04-22T10:52:06.296Z,20.93
2023-04-22T10:53:06.320Z,21.11
2023-04-22T10:54:06.449Z,21.21
2023-04-22T10:55:06.491Z,21.26
2023-04-22T10:56:06.594Z,21.13
2023-04-22T10:57:06.723Z,21.16
2023-04-22T10:58:06.768Z,21.19
2023-04-22T10:59:06.842Z,20.91
2023-04-22T11:00:06.949Z,20.66
2023-04-22T11:01:06.956Z,20.69
2023-04-22T11:02:07.115Z,20.72
2023-04-22T11:03:07.273Z,21.05
2023-04-22T11:04:07.351Z,21.31
2023-04-22T11:05:07.285Z,21.51
2023-04-22T11:06:07.384Z,21.58
2023-04-22T11:07:07.472Z,21.45
2023-04-22T11:08:07.544Z,21.52
2023-04-22T11:09:07.629Z,21.56
2023-04-22T11:10:07.743Z,21.43
2023-04-22T11:11:07.760Z,21.45
2023-04-22T11:12:07.831Z,21.63
2023-04-22T11:13:07.901Z,21.81
2023-04-22T11:14:08.011Z,21.99
2023-04-22T11:15:08.063Z,22.19
2023-04-22T11:16:08.191Z,22.19
2023-04-22T11:17:08.235Z,22.19
2023-04-22T11:18:08.308Z,22.30
2023-04-22T11:19:08.397Z,22.33
2023-04-22T11:20:08.464Z,21.86
2023-04-22T11:21:08.529Z,21.56
2023-04-22T11:22:08.632Z,21.38
2023-04-22T11:23:08.698Z,21.08
2023-04-22T11:24:08.779Z,20.97
2023-04-22T11:25:08.828Z,21.05
2023-04-22T11:26:08.930Z,20.87
2023-04-22T11:27:08.987Z,21.01
2023-04-22T11:28:09.094Z,21.08
2023-04-22T11:29:09.187Z,20.98
2023-04-22T11:30:09.260Z,20.98
2023-04-22T11:31:09.335Z,20.85
2023-04-22T11:32:09.403Z,20.98
2023-04-22T11:33:09.486Z,21.13
2023-04-22T11:34:09.746Z,21.28
2023-04-22T11:35:09.618Z,21.42
2023-04-22T11:36:09.692Z,21.51
2023-04-22T11:37:09.793Z,21.51
2023-04-22T11:38:09.860Z,21.31
2023-04-22T11:39:09.951Z,21.36
2023-04-22T11:40:28.235Z,21.26
2023-04-22T11:41:10.093Z,21.30
2023-04-22T11:42:10.177Z,21.19
2023-04-22T11:43:10.250Z,21.18
2023-04-22T11:44:10.359Z,20.91
2023-04-22T11:45:10.421Z,20.90
2023-04-22T11:46:10.543Z,20.82
2023-04-22T11:47:10.581Z,20.93
2023-04-22T11:48:10.696Z,20.98
2023-04-22T11:49:10.776Z,21.03
2023-04-22T11:50:10.863Z,21.06
2023-04-22T11:51:10.918Z,21.08
2023-04-22T11:52:10.998Z,21.16
2023-04-22T11:53:11.065Z,21.33
2023-04-22T11:54:11.184Z,21.48
2023-04-22T11:55:11.274Z,21.58
2023-04-22T11:56:11.331Z,21.63
2023-04-22T11:57:11.392Z,21.67
2023-04-22T11:58:11.468Z,21.71
2023-04-22T11:59:11.564Z,21.73
2023-04-22T12:00:11.634Z,21.74
2023-04-22T12:01:11.813Z,21.59
2023-04-22T12:02:11.968Z,21.55
2023-04-22T12:03:13.527Z,21.51
2023-04-22T12:04:12.259Z,21.45
2023-04-22T12:05:12.066Z,21.31
2023-04-22T12:06:12.131Z,21.26
2023-04-22T12:07:12.193Z,21.19
2023-04-22T12:08:12.271Z,21.18
2023-04-22T12:09:14.046Z,21.15
2023-04-22T12:10:12.431Z,21.08
2023-04-22T12:11:12.657Z,20.96
2023-04-22T12:12:12.567Z,20.97
2023-04-22T12:13:12.632Z,20.94
2023-04-22T12:14:12.733Z,20.96
2023-04-22T12:15:13.788Z,20.98
2023-04-22T12:16:12.893Z,21.06
2023-04-22T12:17:13.005Z,21.13
2023-04-22T12:18:13.055Z,21.16
2023-04-22T12:19:13.127Z,21.21
2023-04-22T12:20:13.203Z,21.16
2023-04-22T12:21:13.286Z,21.19
2023-04-22T12:22:13.358Z,21.27
2023-04-22T12:23:13.441Z,21.31
2023-04-22T12:24:13.537Z,21.34
2023-04-22T12:25:13.571Z,21.31
2023-04-22T12:26:13.643Z,21.34
2023-04-22T12:27:13.714Z,21.36
2023-04-22T12:28:13.787Z,21.38
2023-04-22T12:29:13.866Z,21.42
2023-04-22T12:30:13.936Z,21.42
2023-04-22T12:31:14.012Z,21.42
2023-04-22T12:32:14.075Z,21.49
2023-04-22T12:33:14.165Z,21.56
2023-04-22T12:34:14.270Z,21.56
2023-04-22T12:35:14.329Z,21.56
2023-04-22T12:36:14.406Z,21.52
2023-04-22T12:37:14.462Z,21.46
2023-04-22T12:38:14.562Z,21.31
2023-04-22T12:39:14.654Z,21.22
2023-04-22T12:40:14.701Z,21.13
2023-04-22T12:41:14.785Z,21.12
2023-04-22T12:42:14.866Z,21.06
2023-04-22T12:43:14.944Z,21.01
2023-04-22T12:44:15.026Z,21.00
2023-04-22T12:45:15.087Z,20.96
2023-04-22T12:46:15.191Z,20.94
2023-04-22T12:47:15.233Z,20.91
2023-04-22T12:48:15.310Z,20.83
2023-04-22T12:49:15.389Z,20.79
2023-04-22T12:50:15.471Z,20.68
2023-04-22T12:51:15.545Z,20.61
2023-04-22T12:52:15.621Z,20.57
2023-04-22T12:53:15.691Z,20.57
2023-04-22T12:54:15.772Z,20.51
2023-04-22T12:55:15.849Z,20.44
2023-04-22T12:56:15.925Z,20.38
2023-04-22T12:57:16.012Z,20.37
2023-04-22T12:58:16.075Z,20.33